Weather observations for the past three days for
Wake Island, Wake Island Army Airfield Airport
| Date | Time (+12) | Wind (mph) | Vis. (mi.) | Weather | Sky Cond. | Temperature (ºF) | Relative Humidity | Wind Chill (°F) | Heat Index (°F) | Pressure | Precipitation (in) | ||||||
|---|---|---|---|---|---|---|---|---|---|---|---|---|---|---|---|---|---|
| Air | Dwpt | 6 hour | altimeter (in) | sea level (mb) | 1 hr | 3 hr | 6 hr | ||||||||||
| Max. | Min. | ||||||||||||||||
| 03 | 09:55 | E 21 | 4.00 | Partly Cloudy with Haze and Breezy | SCT020 SCT032 | 84.6 | 72.7 | 68% | 91 | 30.02 | 1016.8 | ||||||
| 03 | 08:55 | NE 18 | 2.50 | Mostly Cloudy with Haze | BKN080 | 82 | 72.9 | 74% | 87 | 30.02 | 1016.8 | ||||||
| 03 | 07:55 | NE 18 | 8.00 | Light Rain | SCT017 SCT050 BKN075 BKN085 | 78.8 | 72.5 | 81% | 82 | 30 | 1016.2 | ||||||
| 03 | 06:55 | NE 21 | 6.00 | Mostly Cloudy with Haze and Breezy | BKN018 BKN026 | 78.6 | 73.4 | 84% | 82 | 29.99 | 1015.8 | ||||||
| 03 | 05:55 | NE 22 | 4.00 | Overcast with Haze and Breezy | FEW019 SCT028 OVC034 | 78.8 | 71.6 | 79% | 82 | 29.98 | 0.0 | ||||||
| 03 | 04:55 | NE 21 | 4.00 | A Few Clouds with Haze and Breezy | FEW021 | 78.8 | 72 | 80% | 82 | 29.97 | 1015.1 | ||||||
| 03 | 03:55 | NE 18 | 4.00 | Fair with Haze | CLR | 79.2 | 71.6 | 78% | 82 | 29.97 | 1015.1 | ||||||
| 03 | 02:55 | NE 23 | 4.00 | Partly Cloudy with Haze and Breezy | FEW025 SCT033 | 79.2 | 70.9 | 76% | 82 | 29.98 | 1015.5 | ||||||
| 03 | 01:55 | NE 23 | 5.00 | Mostly Cloudy with Haze and Breezy | FEW024 BKN090 | 79.3 | 69.8 | 73% | 82 | 30 | 1016.2 | ||||||
| 03 | 00:55 | NE 23 | 5.00 | Overcast with Haze and Breezy | SCT025 SCT031 OVC090 | 79.3 | 70.7 | 75% | 82 | 30.01 | 1016.5 | ||||||
| 02 | 23:55 | NE 21 | 5.00 | Overcast with Haze and Breezy | FEW022 OVC090 | 80.1 | 71.8 | 83.1 | 79.7 | 76% | 84 | 30.02 | 1016.8 | ||||
| 02 | 22:55 | NE 22 | 5.00 | Overcast with Haze and Breezy | SCT021 OVC085 | 80.4 | 71.8 | 75% | 84 | 30.02 | 1016.8 | ||||||
| 02 | 21:55 | E 22 | 5.00 | Overcast with Haze and Breezy | FEW022 OVC085 | 81 | 71.4 | 73% | 85 | 30.01 | 1016.5 | ||||||
| 02 | 20:55 | NE 23 | 5.00 | Mostly Cloudy with Haze and Breezy | SCT017 SCT075 BKN090 | 80.6 | 73.4 | 79% | 85 | 29.99 | 1015.8 | ||||||
| 02 | 19:55 | NE 20 | 6.00 | Mostly Cloudy with Haze | FEW018 SCT070 BKN090 | 80.8 | 73.2 | 78% | 86 | 29.97 | 1015.1 | ||||||
| 02 | 18:55 | NE 18 | 4.00 | Mostly Cloudy with Haze | FEW018 FEW060 BKN085 | 81.7 | 73.8 | 77% | 87 | 29.96 | 1014.8 | ||||||
| 02 | 17:55 | NE 18 | 4.00 | Mostly Cloudy with Haze | BKN022 BKN028 | 82.9 | 72.9 | 87.6 | 82.9 | 72% | 89 | 29.94 | 1014.1 | ||||
| 02 | 16:55 | NE 20 | 5.00 | Mostly Cloudy with Haze | SCT018 BKN025 | 83.7 | 72.3 | 69% | 89 | 29.93 | 1013.8 | ||||||
| 02 | 15:55 | NE 20 | 6.00 | Partly Cloudy with Haze | FEW022 FEW033 SCT045 | 85.8 | 72.1 | 64% | 92 | 29.94 | 1014.1 | ||||||
| 02 | 14:55 | NE 21 | 6.00 | A Few Clouds with Haze and Breezy | FEW025 | 85.8 | 72.1 | 64% | 92 | 29.94 | 1014.1 | ||||||
| 02 | 13:55 | NE 21 | 6.00 | A Few Clouds with Haze and Breezy | FEW021 FEW029 | 87.1 | 72 | 61% | 94 | 29.96 | 1014.8 | ||||||
| 02 | 12:55 | NE 18 | 7.00 | Partly Cloudy | FEW023 SCT034 | 87.3 | 72.5 | 62% | 94 | 29.98 | 1015.5 | ||||||
| 02 | 11:55 | NE 20 | 6.00 | A Few Clouds with Haze | FEW023 | 86.2 | 70.5 | 86.2 | 75 | 60% | 91 | 30 | 1016.2 | 0.01 | |||
| 02 | 10:55 | NE 23 | 6.00 | Mostly Cloudy with Haze and Breezy | SCT023 BKN042 | 84.6 | 71.4 | 65% | 90 | 30 | 1016.2 | ||||||
| 02 | 09:55 | NE 21 | 7.00 | Mostly Cloudy and Breezy | BKN022 BKN080 | 84.2 | 72 | 67% | 90 | 30.01 | 1016.5 | ||||||
| 02 | 08:55 | NE 18 | 6.00 | Overcast with Haze | FEW022 OVC070 | 81 | 71.8 | 74% | 85 | 30 | 1016.2 | 0.01 | |||||
| 02 | 07:55 | NE 21 | 6.00 | Overcast with Haze and Breezy | FEW020 FEW033 OVC065 | 78.3 | 72 | 81% | 81 | 29.98 | 1015.5 | ||||||
| 02 | 06:55 | E 13 | 10.00 | Light Rain | FEW015 SCT019 SCT027 BKN032 BKN043 OVC050 | 77 | 71.6 | 83% | 78 | 29.97 | 0.0 | ||||||
| 02 | 05:55 | NE 16 | 10.00 | Partly Cloudy | FEW017 SCT049 | 77.2 | 71.2 | 79 | 76.8 | 82% | 79 | 29.95 | 1014.5 | ||||
| 02 | 04:55 | NE 15 | 10.00 | A Few Clouds | FEW021 | 77.2 | 71.2 | 82% | 79 | 29.95 | 1014.5 | ||||||
| 02 | 03:55 | NE 12 | 4.00 | Mostly Cloudy with Haze | SCT023 BKN029 BKN040 | 78.6 | 71.1 | 78% | 81 | 29.96 | 1014.8 | ||||||
| 02 | 02:55 | NE 14 | 4.00 | Mostly Cloudy with Haze | SCT027 BKN035 | 78.6 | 69.3 | 73% | 81 | 29.96 | 1014.8 | ||||||
| 02 | 01:55 | NE 14 | 4.00 | A Few Clouds with Haze | FEW026 | 78.3 | 69.3 | 74% | 81 | 29.97 | 1015.1 | ||||||
| 02 | 00:55 | NE 16 | 5.00 | Fair with Haze | CLR | 78.4 | 67.8 | 70% | 81 | 29.99 | 1015.8 | ||||||
| 01 | 23:55 | NE 21 | 5.00 | Fair with Haze and Breezy | CLR | 78.6 | 69.6 | 82.6 | 78.6 | 74% | 81 | 30 | 1016.2 | ||||
| 01 | 22:55 | E 17 | 5.00 | A Few Clouds with Haze | FEW022 | 79.2 | 70.5 | 75% | 82 | 30.01 | 1016.5 | ||||||
| 01 | 21:55 | NE 18 | 5.00 | Partly Cloudy with Haze | SCT020 | 79.2 | 70.2 | 74% | 82 | 30 | 1016.2 | ||||||
| 01 | 20:55 | NE 20 | 5.00 | Mostly Cloudy with Haze | BKN021 | 79.5 | 70.5 | 74% | 83 | 29.98 | 1015.5 | ||||||
| 01 | 19:55 | NE 18 | 4.00 | A Few Clouds with Haze | FEW021 | 80.1 | 71.8 | 76% | 84 | 29.96 | 1014.8 | ||||||
| 01 | 18:55 | NE 20 | 6.00 | Light Rain | FEW018 SCT030 SCT045 BKN055 | 79 | 71.1 | 77% | 82 | 29.95 | 1014.5 | ||||||
| 01 | 17:55 | NE 21 | 4.00 | Partly Cloudy with Haze and Breezy | FEW021 SCT044 | 81.7 | 72.1 | 86.2 | 81.7 | 73% | 86 | 29.93 | 1013.8 | ||||
| 01 | 16:55 | NE 21 | 5.00 | Overcast with Haze and Breezy | BKN020 BKN030 BKN039 OVC065 | 82.6 | 72.1 | 71% | 88 | 29.92 | 1013.4 | ||||||
| 01 | 15:55 | NE 22 | 5.00 | Overcast with Haze and Breezy | SCT021 BKN027 OVC037 | 83.1 | 72.3 | 70% | 89 | 29.94 | 1014.1 | ||||||
| 01 | 14:55 | NE 18 | 6.00 | Partly Cloudy with Haze | SCT018 SCT024 | 84.9 | 72.1 | 66% | 91 | 29.95 | 1014.5 | ||||||
| 01 | 13:55 | NE 21 | 7.00 | Mostly Cloudy and Breezy | BKN019 BKN025 | 84.9 | 71.8 | 65% | 91 | 29.97 | 1015.1 | ||||||
| 01 | 12:55 | NE 20 | 5.00 | Partly Cloudy with Haze | SCT020 SCT300 | 84.7 | 71.6 | 65% | 90 | 29.99 | 1015.8 | ||||||
| 01 | 11:55 | NE 21 | 6.00 | A Few Clouds with Haze and Breezy | FEW019 | 84.9 | 72.1 | 85.3 | 78.4 | 66% | 91 | 29.99 | 1015.8 | ||||
| 01 | 10:55 | NE 20 | 7.00 | Overcast | BKN021 OVC027 | 84 | 71.8 | 67% | 89 | 30 | 1016.2 | ||||||
| 01 | 09:55 | NE 24 | 6.00 | A Few Clouds with Haze and Breezy | FEW023 | 84.2 | 69.8 | 62% | 88 | 30.01 | 0.0 | ||||||
| 01 | 08:55 | NE 22 | 6.00 | Partly Cloudy with Haze and Breezy | SCT021 SCT029 | 81.9 | 71.4 | 71% | 86 | 30.01 | 1016.5 | ||||||
| 01 | 07:55 | NE 20 | 6.00 | Partly Cloudy with Haze | FEW020 SCT027 | 79.9 | 71.2 | 75% | 83 | 30 | 1016.2 | ||||||
| 01 | 06:55 | NE 22 | 8.00 | Mostly Cloudy and Breezy | BKN021 BKN033 | 78.8 | 71.2 | 78% | 82 | 29.99 | 1015.8 | ||||||
| 01 | 05:55 | NE 20 | 9.00 | A Few Clouds | FEW018 | 78.8 | 72 | 79.7 | 77.9 | 80% | 82 | 29.97 | 1015.1 | ||||
| 01 | 04:55 | NE 18 | 9.00 | Overcast | BKN020 OVC065 | 79.2 | 72 | 79% | 82 | 29.97 | 1015.1 | ||||||
| 01 | 03:55 | NE 17 | 9.00 | Mostly Cloudy | BKN020 | 78.8 | 71.6 | 79% | 82 | 29.97 | 0.0 | ||||||
| 01 | 02:55 | NE 18 | 10.00 | Partly Cloudy | SCT021 SCT038 | 79 | 71.4 | 78% | 82 | 29.98 | 1015.5 | ||||||
| 01 | 01:55 | NE 15 | 10.00 | A Few Clouds | FEW018 | 79.3 | 72.9 | 81% | 83 | 29.99 | 1015.8 | ||||||
| 01 | 00:55 | E 14 | 10.00 | Mostly Cloudy | BKN016 BKN024 | 78.6 | 73 | 83% | 82 | 30 | 1016.2 | ||||||
| 30 | 23:55 | NE 17 | 10.00 | Mostly Cloudy | FEW014 BKN055 | 78.1 | 73.4 | 83.1 | 76.1 | 86% | 81 | 30.01 | 1016.5 | ||||
| 30 | 22:55 | NE 17 | 10.00 | Mostly Cloudy | SCT018 BKN036 | 79 | 72.9 | 82% | 82 | 30.02 | 1016.8 | ||||||
| 30 | 21:55 | NE 14 | 10.00 | Partly Cloudy | FEW049 SCT065 | 77.4 | 72.9 | 86% | 79 | 30.01 | 1016.5 | ||||||
| 30 | 20:55 | NE 15 | 10.00 | Partly Cloudy | SCT018 | 79.9 | 72.7 | 79% | 84 | 30 | 1016.2 | ||||||
| 30 | 19:55 | NE 20 | 10.00 | Mostly Cloudy | FEW020 BKN050 | 80.2 | 71.1 | 74% | 84 | 29.98 | 1015.5 | ||||||
| 30 | 18:55 | NE 18 | 10.00 | Mostly Cloudy | SCT018 BKN040 | 80.6 | 72.7 | 77% | 85 | 29.97 | 1015.1 | ||||||
| 30 | 17:55 | NE 20 | 10.00 | Partly Cloudy | SCT022 SCT048 | 82.8 | 71.4 | 86.7 | 82.6 | 69% | 88 | 29.95 | 1014.5 | ||||
| 30 | 16:55 | NE 18 | 10.00 | Partly Cloudy | FEW021 SCT026 | 83.7 | 71.4 | 67% | 89 | 29.94 | 1014.1 | ||||||
| 30 | 15:55 | NE 20 | 10.00 | Partly Cloudy | SCT022 SCT028 | 85.3 | 72.1 | 65% | 91 | 29.95 | 1014.5 | ||||||
| 30 | 14:55 | NE 22 | 10.00 | Partly Cloudy and Breezy | SCT022 SCT031 | 84.7 | 70.7 | 63% | 90 | 29.96 | 1014.8 | ||||||
| 30 | 13:55 | NE 17 | 10.00 | A Few Clouds | FEW024 | 85.8 | 71.2 | 62% | 91 | 29.99 | 1015.8 | ||||||
| 30 | 12:55 | NE 20 | 10.00 | Partly Cloudy | SCT023 SCT290 SCT340 | 85.1 | 70.5 | 62% | 90 | 30.01 | 1016.5 | ||||||
| 30 | 11:55 | NE 18 | 10.00 | Partly Cloudy | SCT024 | 85.6 | 70.5 | 85.8 | 78.6 | 61% | 91 | 30.03 | 1017.2 | ||||
| 30 | 10:55 | NE 20 | 10.00 | A Few Clouds | FEW024 | 85.3 | 69.8 | 60% | 90 | 30.05 | 1017.8 | ||||||
| Date | Time (+12) | Wind (mph) | Vis. (mi.) | Weather | Sky Cond. | Air | Dwpt | Max. | Min. | Relative Humidity | Wind Chill (°F) | Heat Index (°F) | altimeter (in) | sea level (mb) | 1 hr | 3 hr | 6 hr |
| 6 hour | |||||||||||||||||
| Temperature (ºF) | Pressure | Precipitation (in) | |||||||||||||||